sensor_id;sensor_type;location;lat;lon;timestamp;temperature;humidity
27848;DHT22;15212;48.830;8.730;2024-02-15T00:01:35;9.30;99.90
27848;DHT22;15212;48.830;8.730;2024-02-15T00:04:03;9.40;99.90
27848;DHT22;15212;48.830;8.730;2024-02-15T00:06:32;9.40;99.90
27848;DHT22;15212;48.830;8.730;2024-02-15T00:09:01;9.40;99.90
27848;DHT22;15212;48.830;8.730;2024-02-15T00:11:30;9.40;99.90
27848;DHT22;15212;48.830;8.730;2024-02-15T00:13:59;9.40;99.90
27848;DHT22;15212;48.830;8.730;2024-02-15T00:16:28;9.40;99.90
27848;DHT22;15212;48.830;8.730;2024-02-15T00:18:56;9.30;99.90
27848;DHT22;15212;48.830;8.730;2024-02-15T00:21:26;9.30;99.90
27848;DHT22;15212;48.830;8.730;2024-02-15T00:23:54;9.20;99.90
27848;DHT22;15212;48.830;8.730;2024-02-15T00:26:23;9.20;99.90
27848;DHT22;15212;48.830;8.730;2024-02-15T00:28:51;9.10;99.90
27848;DHT22;15212;48.830;8.730;2024-02-15T00:31:20;9.10;99.90
27848;DHT22;15212;48.830;8.730;2024-02-15T00:33:49;9.00;99.90
27848;DHT22;15212;48.830;8.730;2024-02-15T00:36:17;9.00;99.90
27848;DHT22;15212;48.830;8.730;2024-02-15T00:38:46;8.90;99.90
27848;DHT22;15212;48.830;8.730;2024-02-15T00:41:14;8.80;99.90
27848;DHT22;15212;48.830;8.730;2024-02-15T00:43:43;8.70;99.90
27848;DHT22;15212;48.830;8.730;2024-02-15T00:46:11;8.70;99.90
27848;DHT22;15212;48.830;8.730;2024-02-15T00:48:39;8.70;99.90
27848;DHT22;15212;48.830;8.730;2024-02-15T00:51:08;8.70;99.90
27848;DHT22;15212;48.830;8.730;2024-02-15T00:53:36;8.60;99.90
27848;DHT22;15212;48.830;8.730;2024-02-15T00:56:05;8.60;99.90
27848;DHT22;15212;48.830;8.730;2024-02-15T00:58:34;8.50;99.90
27848;DHT22;15212;48.830;8.730;2024-02-15T01:01:02;8.50;99.90
27848;DHT22;15212;48.830;8.730;2024-02-15T01:03:30;8.50;99.90
27848;DHT22;15212;48.830;8.730;2024-02-15T01:05:59;8.40;99.90
27848;DHT22;15212;48.830;8.730;2024-02-15T01:08:27;8.40;99.90
27848;DHT22;15212;48.830;8.730;2024-02-15T01:10:56;8.50;99.90
27848;DHT22;15212;48.830;8.730;2024-02-15T01:13:24;8.50;99.90
27848;DHT22;15212;48.830;8.730;2024-02-15T01:15:53;8.50;99.90
27848;DHT22;15212;48.830;8.730;2024-02-15T01:18:22;8.50;99.90
27848;DHT22;15212;48.830;8.730;2024-02-15T01:20:50;8.60;99.90
27848;DHT22;15212;48.830;8.730;2024-02-15T01:23:19;8.60;99.90
27848;DHT22;15212;48.830;8.730;2024-02-15T01:25:49;8.60;99.90
27848;DHT22;15212;48.830;8.730;2024-02-15T01:28:17;8.60;99.90
27848;DHT22;15212;48.830;8.730;2024-02-15T01:30:46;8.60;99.90
27848;DHT22;15212;48.830;8.730;2024-02-15T01:33:14;8.60;99.90
27848;DHT22;15212;48.830;8.730;2024-02-15T01:35:44;8.60;99.90
27848;DHT22;15212;48.830;8.730;2024-02-15T01:38:12;8.60;99.90
27848;DHT22;15212;48.830;8.730;2024-02-15T01:40:40;8.60;99.90
27848;DHT22;15212;48.830;8.730;2024-02-15T01:43:09;8.50;99.90
27848;DHT22;15212;48.830;8.730;2024-02-15T01:45:37;8.50;99.90
27848;DHT22;15212;48.830;8.730;2024-02-15T01:48:07;8.50;99.90
27848;DHT22;15212;48.830;8.730;2024-02-15T01:50:36;8.50;99.90
27848;DHT22;15212;48.830;8.730;2024-02-15T01:53:07;8.50;99.90
27848;DHT22;15212;48.830;8.730;2024-02-15T01:55:35;8.40;99.90
27848;DHT22;15212;48.830;8.730;2024-02-15T01:58:06;8.40;99.90
27848;DHT22;15212;48.830;8.730;2024-02-15T02:00:36;8.40;99.90
27848;DHT22;15212;48.830;8.730;2024-02-15T02:03:06;8.30;99.90
27848;DHT22;15212;48.830;8.730;2024-02-15T02:05:36;8.30;99.90
27848;DHT22;15212;48.830;8.730;2024-02-15T02:08:05;8.30;99.90
27848;DHT22;15212;48.830;8.730;2024-02-15T02:10:37;8.30;99.90
27848;DHT22;15212;48.830;8.730;2024-02-15T02:13:06;8.30;99.90
27848;DHT22;15212;48.830;8.730;2024-02-15T02:15:35;8.20;99.90
27848;DHT22;15212;48.830;8.730;2024-02-15T02:18:04;8.30;99.90
27848;DHT22;15212;48.830;8.730;2024-02-15T02:20:34;8.20;99.90
27848;DHT22;15212;48.830;8.730;2024-02-15T02:23:07;8.20;99.90
27848;DHT22;15212;48.830;8.730;2024-02-15T02:25:45;8.20;99.90
27848;DHT22;15212;48.830;8.730;2024-02-15T02:28:15;8.20;99.90
27848;DHT22;15212;48.830;8.730;2024-02-15T02:30:44;8.20;99.90
27848;DHT22;15212;48.830;8.730;2024-02-15T02:33:13;8.30;99.90
27848;DHT22;15212;48.830;8.730;2024-02-15T02:35:45;8.30;99.90
27848;DHT22;15212;48.830;8.730;2024-02-15T02:38:14;8.20;99.90
27848;DHT22;15212;48.830;8.730;2024-02-15T02:40:43;8.20;99.90
27848;DHT22;15212;48.830;8.730;2024-02-15T02:43:11;8.20;99.90
27848;DHT22;15212;48.830;8.730;2024-02-15T02:45:40;8.10;99.90
27848;DHT22;15212;48.830;8.730;2024-02-15T02:48:09;8.10;99.90
27848;DHT22;15212;48.830;8.730;2024-02-15T02:50:38;8.00;99.90
27848;DHT22;15212;48.830;8.730;2024-02-15T02:53:06;7.90;99.90
27848;DHT22;15212;48.830;8.730;2024-02-15T02:55:36;7.90;99.90
27848;DHT22;15212;48.830;8.730;2024-02-15T02:58:06;7.90;99.90
27848;DHT22;15212;48.830;8.730;2024-02-15T03:00:35;7.90;99.90
27848;DHT22;15212;48.830;8.730;2024-02-15T03:03:04;8.00;99.90
27848;DHT22;15212;48.830;8.730;2024-02-15T03:05:32;7.90;99.90
27848;DHT22;15212;48.830;8.730;2024-02-15T03:08:01;8.00;99.90
27848;DHT22;15212;48.830;8.730;2024-02-15T03:10:29;8.00;99.90
27848;DHT22;15212;48.830;8.730;2024-02-15T03:12:58;8.00;99.90
27848;DHT22;15212;48.830;8.730;2024-02-15T03:15:26;8.00;99.90
27848;DHT22;15212;48.830;8.730;2024-02-15T03:17:55;8.00;99.90
27848;DHT22;15212;48.830;8.730;2024-02-15T03:20:24;8.00;99.90
27848;DHT22;15212;48.830;8.730;2024-02-15T03:22:58;8.00;99.90
27848;DHT22;15212;48.830;8.730;2024-02-15T03:25:28;8.10;99.90
27848;DHT22;15212;48.830;8.730;2024-02-15T03:27:58;8.10;99.90
27848;DHT22;15212;48.830;8.730;2024-02-15T03:30:30;8.10;99.90
27848;DHT22;15212;48.830;8.730;2024-02-15T03:33:01;8.10;99.90
27848;DHT22;15212;48.830;8.730;2024-02-15T03:35:31;8.20;99.90
27848;DHT22;15212;48.830;8.730;2024-02-15T03:38:00;8.20;99.90
27848;DHT22;15212;48.830;8.730;2024-02-15T03:40:28;8.20;99.90
27848;DHT22;15212;48.830;8.730;2024-02-15T03:42:58;8.30;99.90
27848;DHT22;15212;48.830;8.730;2024-02-15T03:45:27;8.30;99.90
27848;DHT22;15212;48.830;8.730;2024-02-15T03:47:55;8.30;99.90
27848;DHT22;15212;48.830;8.730;2024-02-15T03:50:24;8.40;99.90
27848;DHT22;15212;48.830;8.730;2024-02-15T03:52:52;8.40;99.90
27848;DHT22;15212;48.830;8.730;2024-02-15T03:55:21;8.40;99.90
27848;DHT22;15212;48.830;8.730;2024-02-15T03:57:51;8.40;99.90
27848;DHT22;15212;48.830;8.730;2024-02-15T04:00:21;8.50;99.90
27848;DHT22;15212;48.830;8.730;2024-02-15T04:02:51;8.40;99.90
27848;DHT22;15212;48.830;8.730;2024-02-15T04:05:20;8.40;99.90
27848;DHT22;15212;48.830;8.730;2024-02-15T04:07:49;8.50;99.90
27848;DHT22;15212;48.830;8.730;2024-02-15T04:10:20;8.50;99.90
27848;DHT22;15212;48.830;8.730;2024-02-15T04:12:48;8.50;99.90
27848;DHT22;15212;48.830;8.730;2024-02-15T04:15:16;8.40;99.90
27848;DHT22;15212;48.830;8.730;2024-02-15T04:17:45;8.50;99.90
27848;DHT22;15212;48.830;8.730;2024-02-15T04:20:13;8.50;99.90
27848;DHT22;15212;48.830;8.730;2024-02-15T04:22:44;8.50;99.90
27848;DHT22;15212;48.830;8.730;2024-02-15T04:25:14;8.50;99.90
27848;DHT22;15212;48.830;8.730;2024-02-15T04:27:45;8.50;99.90
27848;DHT22;15212;48.830;8.730;2024-02-15T04:30:14;8.50;99.90
27848;DHT22;15212;48.830;8.730;2024-02-15T04:32:42;8.50;99.90
27848;DHT22;15212;48.830;8.730;2024-02-15T04:35:11;8.60;99.90
27848;DHT22;15212;48.830;8.730;2024-02-15T04:37:41;8.60;99.90
27848;DHT22;15212;48.830;8.730;2024-02-15T04:40:09;8.60;99.90
27848;DHT22;15212;48.830;8.730;2024-02-15T04:42:40;8.60;99.90
27848;DHT22;15212;48.830;8.730;2024-02-15T04:45:10;8.60;99.90
27848;DHT22;15212;48.830;8.730;2024-02-15T04:47:40;8.60;99.90
27848;DHT22;15212;48.830;8.730;2024-02-15T04:50:11;8.60;99.90
27848;DHT22;15212;48.830;8.730;2024-02-15T04:52:39;8.60;99.90
27848;DHT22;15212;48.830;8.730;2024-02-15T04:55:09;8.60;99.90
27848;DHT22;15212;48.830;8.730;2024-02-15T04:57:37;8.60;99.90
27848;DHT22;15212;48.830;8.730;2024-02-15T05:00:07;8.60;99.90
27848;DHT22;15212;48.830;8.730;2024-02-15T05:02:38;8.60;99.90
27848;DHT22;15212;48.830;8.730;2024-02-15T05:05:07;8.70;99.90
27848;DHT22;15212;48.830;8.730;2024-02-15T05:07:39;8.60;99.90
27848;DHT22;15212;48.830;8.730;2024-02-15T05:10:09;8.60;99.90
27848;DHT22;15212;48.830;8.730;2024-02-15T05:12:39;8.70;99.90
27848;DHT22;15212;48.830;8.730;2024-02-15T05:15:07;8.70;99.90
27848;DHT22;15212;48.830;8.730;2024-02-15T05:17:41;8.70;99.90
27848;DHT22;15212;48.830;8.730;2024-02-15T05:20:10;8.70;99.90
27848;DHT22;15212;48.830;8.730;2024-02-15T05:22:40;8.70;99.90
27848;DHT22;15212;48.830;8.730;2024-02-15T05:25:13;8.70;99.90
27848;DHT22;15212;48.830;8.730;2024-02-15T05:27:42;8.70;99.90
27848;DHT22;15212;48.830;8.730;2024-02-15T05:30:13;8.70;99.90
27848;DHT22;15212;48.830;8.730;2024-02-15T05:32:41;8.70;99.90
27848;DHT22;15212;48.830;8.730;2024-02-15T05:35:17;8.80;99.90
27848;DHT22;15212;48.830;8.730;2024-02-15T05:37:42;8.80;99.90
27848;DHT22;15212;48.830;8.730;2024-02-15T05:40:12;8.80;99.90
27848;DHT22;15212;48.830;8.730;2024-02-15T05:42:42;8.80;99.90
27848;DHT22;15212;48.830;8.730;2024-02-15T05:45:28;8.80;99.90
27848;DHT22;15212;48.830;8.730;2024-02-15T05:47:58;8.80;99.90
27848;DHT22;15212;48.830;8.730;2024-02-15T05:50:27;8.80;99.90
27848;DHT22;15212;48.830;8.730;2024-02-15T05:52:57;8.80;99.90
27848;DHT22;15212;48.830;8.730;2024-02-15T05:55:27;8.80;99.90
27848;DHT22;15212;48.830;8.730;2024-02-15T05:57:57;8.80;99.90
27848;DHT22;15212;48.830;8.730;2024-02-15T06:00:26;8.80;99.90
27848;DHT22;15212;48.830;8.730;2024-02-15T06:02:56;8.80;99.90
27848;DHT22;15212;48.830;8.730;2024-02-15T06:05:24;8.80;99.90
27848;DHT22;15212;48.830;8.730;2024-02-15T06:07:53;8.80;99.90
27848;DHT22;15212;48.830;8.730;2024-02-15T06:10:24;8.80;99.90
27848;DHT22;15212;48.830;8.730;2024-02-15T06:12:52;8.80;99.90
27848;DHT22;15212;48.830;8.730;2024-02-15T06:15:21;8.80;99.90
27848;DHT22;15212;48.830;8.730;2024-02-15T06:17:50;8.80;99.90
27848;DHT22;15212;48.830;8.730;2024-02-15T06:20:19;8.80;99.90
27848;DHT22;15212;48.830;8.730;2024-02-15T06:22:50;8.80;99.90
27848;DHT22;15212;48.830;8.730;2024-02-15T06:25:22;8.80;99.90
27848;DHT22;15212;48.830;8.730;2024-02-15T06:27:53;8.80;99.90
27848;DHT22;15212;48.830;8.730;2024-02-15T06:30:23;8.70;99.90
27848;DHT22;15212;48.830;8.730;2024-02-15T06:33:08;8.70;99.90
27848;DHT22;15212;48.830;8.730;2024-02-15T06:35:54;8.70;99.90
27848;DHT22;15212;48.830;8.730;2024-02-15T06:38:40;8.70;99.90
27848;DHT22;15212;48.830;8.730;2024-02-15T06:41:26;8.70;99.90
27848;DHT22;15212;48.830;8.730;2024-02-15T06:43:55;8.80;99.90
27848;DHT22;15212;48.830;8.730;2024-02-15T06:46:24;8.70;99.90
27848;DHT22;15212;48.830;8.730;2024-02-15T06:48:53;8.70;99.90
27848;DHT22;15212;48.830;8.730;2024-02-15T06:51:21;8.70;99.90
27848;DHT22;15212;48.830;8.730;2024-02-15T06:53:51;8.70;99.90
27848;DHT22;15212;48.830;8.730;2024-02-15T06:56:21;8.70;99.90
27848;DHT22;15212;48.830;8.730;2024-02-15T06:58:51;8.60;99.90
27848;DHT22;15212;48.830;8.730;2024-02-15T07:01:23;8.70;99.90
27848;DHT22;15212;48.830;8.730;2024-02-15T07:03:51;8.70;99.90
27848;DHT22;15212;48.830;8.730;2024-02-15T07:06:20;8.70;99.90
27848;DHT22;15212;48.830;8.730;2024-02-15T07:08:48;8.70;99.90
27848;DHT22;15212;48.830;8.730;2024-02-15T07:11:18;8.70;99.90
27848;DHT22;15212;48.830;8.730;2024-02-15T07:13:48;8.70;99.90
27848;DHT22;15212;48.830;8.730;2024-02-15T07:16:18;8.80;99.90
27848;DHT22;15212;48.830;8.730;2024-02-15T07:18:46;8.90;99.90
27848;DHT22;15212;48.830;8.730;2024-02-15T07:21:15;8.90;99.90
27848;DHT22;15212;48.830;8.730;2024-02-15T07:23:45;8.90;99.90
27848;DHT22;15212;48.830;8.730;2024-02-15T07:26:13;8.90;99.90
27848;DHT22;15212;48.830;8.730;2024-02-15T07:28:42;8.90;99.90
27848;DHT22;15212;48.830;8.730;2024-02-15T07:31:11;8.90;99.90
27848;DHT22;15212;48.830;8.730;2024-02-15T07:33:41;8.90;99.90
27848;DHT22;15212;48.830;8.730;2024-02-15T07:36:12;9.00;99.90
27848;DHT22;15212;48.830;8.730;2024-02-15T07:38:40;9.00;99.90
27848;DHT22;15212;48.830;8.730;2024-02-15T07:41:08;9.10;99.90
27848;DHT22;15212;48.830;8.730;2024-02-15T07:43:37;9.10;99.90
27848;DHT22;15212;48.830;8.730;2024-02-15T07:46:07;9.00;99.90
27848;DHT22;15212;48.830;8.730;2024-02-15T07:48:40;9.00;99.90
27848;DHT22;15212;48.830;8.730;2024-02-15T07:51:10;9.00;99.90
27848;DHT22;15212;48.830;8.730;2024-02-15T07:53:42;9.00;99.90
27848;DHT22;15212;48.830;8.730;2024-02-15T07:56:11;9.10;99.90
27848;DHT22;15212;48.830;8.730;2024-02-15T07:58:44;9.10;99.90
27848;DHT22;15212;48.830;8.730;2024-02-15T08:01:17;9.10;99.90
27848;DHT22;15212;48.830;8.730;2024-02-15T08:03:49;9.10;99.90
27848;DHT22;15212;48.830;8.730;2024-02-15T08:06:17;9.10;99.90
27848;DHT22;15212;48.830;8.730;2024-02-15T08:08:47;9.10;99.90
27848;DHT22;15212;48.830;8.730;2024-02-15T08:11:17;9.10;99.90
27848;DHT22;15212;48.830;8.730;2024-02-15T08:13:47;9.10;99.90
27848;DHT22;15212;48.830;8.730;2024-02-15T08:16:17;9.10;99.90
27848;DHT22;15212;48.830;8.730;2024-02-15T08:18:49;9.10;99.90
27848;DHT22;15212;48.830;8.730;2024-02-15T08:21:27;9.00;99.90
27848;DHT22;15212;48.830;8.730;2024-02-15T08:23:56;9.00;99.90
27848;DHT22;15212;48.830;8.730;2024-02-15T08:26:25;9.00;99.90
27848;DHT22;15212;48.830;8.730;2024-02-15T08:28:55;9.00;99.90
27848;DHT22;15212;48.830;8.730;2024-02-15T08:31:24;9.00;99.90
27848;DHT22;15212;48.830;8.730;2024-02-15T08:33:52;9.00;99.90
27848;DHT22;15212;48.830;8.730;2024-02-15T08:36:20;9.10;99.90
27848;DHT22;15212;48.830;8.730;2024-02-15T08:38:50;9.20;99.90
27848;DHT22;15212;48.830;8.730;2024-02-15T08:41:18;9.30;99.90
27848;DHT22;15212;48.830;8.730;2024-02-15T08:43:48;9.40;99.90
27848;DHT22;15212;48.830;8.730;2024-02-15T08:46:17;9.50;99.90
27848;DHT22;15212;48.830;8.730;2024-02-15T08:48:48;9.60;99.90
27848;DHT22;15212;48.830;8.730;2024-02-15T08:51:17;9.70;99.90
27848;DHT22;15212;48.830;8.730;2024-02-15T08:53:47;9.70;99.90
27848;DHT22;15212;48.830;8.730;2024-02-15T08:56:15;9.80;99.90
27848;DHT22;15212;48.830;8.730;2024-02-15T08:58:44;9.90;99.90
27848;DHT22;15212;48.830;8.730;2024-02-15T09:01:13;9.80;99.90
27848;DHT22;15212;48.830;8.730;2024-02-15T09:03:42;9.90;99.90
27848;DHT22;15212;48.830;8.730;2024-02-15T09:06:11;9.90;99.90
27848;DHT22;15212;48.830;8.730;2024-02-15T09:08:40;10.00;99.90
27848;DHT22;15212;48.830;8.730;2024-02-15T09:11:08;10.10;99.90
27848;DHT22;15212;48.830;8.730;2024-02-15T09:13:38;10.20;99.90
27848;DHT22;15212;48.830;8.730;2024-02-15T09:16:07;10.30;99.90
27848;DHT22;15212;48.830;8.730;2024-02-15T09:18:35;10.40;99.90
27848;DHT22;15212;48.830;8.730;2024-02-15T09:21:04;10.50;99.90
27848;DHT22;15212;48.830;8.730;2024-02-15T09:23:33;10.60;99.90
27848;DHT22;15212;48.830;8.730;2024-02-15T09:26:01;10.70;99.90
27848;DHT22;15212;48.830;8.730;2024-02-15T09:28:29;10.80;99.90
27848;DHT22;15212;48.830;8.730;2024-02-15T09:30:59;10.90;99.90
27848;DHT22;15212;48.830;8.730;2024-02-15T09:33:28;11.00;99.90
27848;DHT22;15212;48.830;8.730;2024-02-15T09:35:56;11.20;99.90
27848;DHT22;15212;48.830;8.730;2024-02-15T09:38:24;11.30;99.90
27848;DHT22;15212;48.830;8.730;2024-02-15T09:40:53;11.40;99.90
27848;DHT22;15212;48.830;8.730;2024-02-15T09:43:22;11.50;99.90
27848;DHT22;15212;48.830;8.730;2024-02-15T09:45:54;11.60;99.90
27848;DHT22;15212;48.830;8.730;2024-02-15T09:48:25;11.70;99.90
27848;DHT22;15212;48.830;8.730;2024-02-15T09:50:53;11.70;99.90
27848;DHT22;15212;48.830;8.730;2024-02-15T09:53:22;11.90;99.90
27848;DHT22;15212;48.830;8.730;2024-02-15T09:55:54;12.00;99.90
27848;DHT22;15212;48.830;8.730;2024-02-15T09:58:24;12.00;99.90
27848;DHT22;15212;48.830;8.730;2024-02-15T10:00:52;12.10;99.90
27848;DHT22;15212;48.830;8.730;2024-02-15T10:03:21;12.20;99.90
27848;DHT22;15212;48.830;8.730;2024-02-15T10:05:51;12.30;99.90
27848;DHT22;15212;48.830;8.730;2024-02-15T10:08:19;12.30;99.90
27848;DHT22;15212;48.830;8.730;2024-02-15T10:11:09;12.40;99.90
27848;DHT22;15212;48.830;8.730;2024-02-15T10:13:38;12.40;99.90
27848;DHT22;15212;48.830;8.730;2024-02-15T10:16:18;12.50;99.90
27848;DHT22;15212;48.830;8.730;2024-02-15T10:18:48;12.60;99.90
27848;DHT22;15212;48.830;8.730;2024-02-15T10:21:27;12.70;99.90
27848;DHT22;15212;48.830;8.730;2024-02-15T10:24:05;12.70;99.90
27848;DHT22;15212;48.830;8.730;2024-02-15T10:26:34;12.80;99.90
27848;DHT22;15212;48.830;8.730;2024-02-15T10:29:10;12.80;99.90
27848;DHT22;15212;48.830;8.730;2024-02-15T10:31:39;12.80;99.90
27848;DHT22;15212;48.830;8.730;2024-02-15T10:34:13;12.90;99.90
27848;DHT22;15212;48.830;8.730;2024-02-15T10:36:42;12.90;99.90
27848;DHT22;15212;48.830;8.730;2024-02-15T10:39:14;13.00;99.90
27848;DHT22;15212;48.830;8.730;2024-02-15T10:41:48;13.10;99.90
27848;DHT22;15212;48.830;8.730;2024-02-15T10:44:22;13.00;99.90
27848;DHT22;15212;48.830;8.730;2024-02-15T10:46:53;13.10;99.90
27848;DHT22;15212;48.830;8.730;2024-02-15T10:49:25;13.00;99.90
27848;DHT22;15212;48.830;8.730;2024-02-15T10:51:56;13.10;99.90
27848;DHT22;15212;48.830;8.730;2024-02-15T10:54:41;13.20;99.90
27848;DHT22;15212;48.830;8.730;2024-02-15T10:57:21;13.20;99.90
27848;DHT22;15212;48.830;8.730;2024-02-15T10:59:57;13.20;99.90
27848;DHT22;15212;48.830;8.730;2024-02-15T11:02:59;13.20;99.90
27848;DHT22;15212;48.830;8.730;2024-02-15T11:05:33;13.20;99.90
27848;DHT22;15212;48.830;8.730;2024-02-15T11:08:07;13.20;99.90
27848;DHT22;15212;48.830;8.730;2024-02-15T11:10:37;13.30;99.90
27848;DHT22;15212;48.830;8.730;2024-02-15T11:13:08;13.30;99.90
27848;DHT22;15212;48.830;8.730;2024-02-15T11:15:45;13.40;99.90
27848;DHT22;15212;48.830;8.730;2024-02-15T11:18:46;13.30;99.90
27848;DHT22;15212;48.830;8.730;2024-02-15T11:21:11;13.20;99.90
27848;DHT22;15212;48.830;8.730;2024-02-15T11:23:39;13.30;99.90
27848;DHT22;15212;48.830;8.730;2024-02-15T11:32:41;13.50;99.90
27848;DHT22;15212;48.830;8.730;2024-02-15T11:35:20;13.60;99.90
27848;DHT22;15212;48.830;8.730;2024-02-15T11:37:52;13.70;99.90
27848;DHT22;15212;48.830;8.730;2024-02-15T11:40:27;13.70;99.90
27848;DHT22;15212;48.830;8.730;2024-02-15T11:42:58;13.70;99.90
27848;DHT22;15212;48.830;8.730;2024-02-15T11:45:27;13.70;99.90
27848;DHT22;15212;48.830;8.730;2024-02-15T11:48:10;13.80;99.90
27848;DHT22;15212;48.830;8.730;2024-02-15T11:50:40;13.80;99.90
27848;DHT22;15212;48.830;8.730;2024-02-15T11:53:09;13.80;99.90
27848;DHT22;15212;48.830;8.730;2024-02-15T11:55:38;13.70;99.90
27848;DHT22;15212;48.830;8.730;2024-02-15T11:58:10;13.80;99.90
27848;DHT22;15212;48.830;8.730;2024-02-15T12:00:41;13.70;99.90
27848;DHT22;15212;48.830;8.730;2024-02-15T12:03:28;13.60;99.90
27848;DHT22;15212;48.830;8.730;2024-02-15T12:06:19;13.60;99.90
27848;DHT22;15212;48.830;8.730;2024-02-15T12:09:05;13.60;99.90
27848;DHT22;15212;48.830;8.730;2024-02-15T12:12:01;13.50;99.90
27848;DHT22;15212;48.830;8.730;2024-02-15T12:14:43;13.60;99.90
27848;DHT22;15212;48.830;8.730;2024-02-15T12:17:29;13.60;99.90
27848;DHT22;15212;48.830;8.730;2024-02-15T12:20:16;13.60;99.90
27848;DHT22;15212;48.830;8.730;2024-02-15T12:22:47;13.60;99.90
27848;DHT22;15212;48.830;8.730;2024-02-15T12:25:17;13.70;99.90
27848;DHT22;15212;48.830;8.730;2024-02-15T12:27:52;13.70;99.90
27848;DHT22;15212;48.830;8.730;2024-02-15T12:30:22;13.80;99.90
27848;DHT22;15212;48.830;8.730;2024-02-15T12:32:52;13.80;99.90
27848;DHT22;15212;48.830;8.730;2024-02-15T12:35:22;13.80;99.90
27848;DHT22;15212;48.830;8.730;2024-02-15T12:38:02;13.80;99.90
27848;DHT22;15212;48.830;8.730;2024-02-15T12:40:33;13.80;99.90
27848;DHT22;15212;48.830;8.730;2024-02-15T12:43:08;13.80;99.90
27848;DHT22;15212;48.830;8.730;2024-02-15T12:45:38;13.80;99.90
27848;DHT22;15212;48.830;8.730;2024-02-15T12:48:08;13.80;99.90
27848;DHT22;15212;48.830;8.730;2024-02-15T12:50:37;13.80;99.90
27848;DHT22;15212;48.830;8.730;2024-02-15T12:53:05;13.80;99.90
27848;DHT22;15212;48.830;8.730;2024-02-15T12:55:36;13.80;99.90
27848;DHT22;15212;48.830;8.730;2024-02-15T12:58:12;13.70;99.90
27848;DHT22;15212;48.830;8.730;2024-02-15T13:00:42;13.70;99.90
27848;DHT22;15212;48.830;8.730;2024-02-15T13:03:12;13.70;99.90
27848;DHT22;15212;48.830;8.730;2024-02-15T13:05:44;13.70;99.90
27848;DHT22;15212;48.830;8.730;2024-02-15T13:08:15;13.70;99.90
27848;DHT22;15212;48.830;8.730;2024-02-15T13:10:46;13.70;99.90
27848;DHT22;15212;48.830;8.730;2024-02-15T13:13:15;13.80;99.90
27848;DHT22;15212;48.830;8.730;2024-02-15T13:15:43;13.70;99.90
27848;DHT22;15212;48.830;8.730;2024-02-15T13:18:13;13.80;99.90
27848;DHT22;15212;48.830;8.730;2024-02-15T13:20:41;13.80;99.90
27848;DHT22;15212;48.830;8.730;2024-02-15T13:23:11;13.90;99.90
27848;DHT22;15212;48.830;8.730;2024-02-15T13:25:43;13.90;99.90
27848;DHT22;15212;48.830;8.730;2024-02-15T13:28:12;14.00;99.90
27848;DHT22;15212;48.830;8.730;2024-02-15T13:30:41;14.00;99.90
27848;DHT22;15212;48.830;8.730;2024-02-15T13:33:12;14.00;99.90
27848;DHT22;15212;48.830;8.730;2024-02-15T13:35:41;14.00;99.90
27848;DHT22;15212;48.830;8.730;2024-02-15T13:38:11;14.00;99.90
27848;DHT22;15212;48.830;8.730;2024-02-15T13:40:44;13.90;99.90
27848;DHT22;15212;48.830;8.730;2024-02-15T13:43:14;13.90;99.90
27848;DHT22;15212;48.830;8.730;2024-02-15T13:45:45;13.90;99.90
27848;DHT22;15212;48.830;8.730;2024-02-15T13:48:15;13.90;99.90
27848;DHT22;15212;48.830;8.730;2024-02-15T13:50:43;13.90;99.90
27848;DHT22;15212;48.830;8.730;2024-02-15T13:53:11;13.90;99.90
27848;DHT22;15212;48.830;8.730;2024-02-15T13:55:45;13.90;99.90
27848;DHT22;15212;48.830;8.730;2024-02-15T13:58:14;13.90;99.90
27848;DHT22;15212;48.830;8.730;2024-02-15T14:00:42;13.90;99.90
27848;DHT22;15212;48.830;8.730;2024-02-15T14:03:11;13.90;99.90
27848;DHT22;15212;48.830;8.730;2024-02-15T14:05:42;13.90;99.90
27848;DHT22;15212;48.830;8.730;2024-02-15T14:08:12;13.90;99.90
27848;DHT22;15212;48.830;8.730;2024-02-15T14:10:40;14.00;99.90
27848;DHT22;15212;48.830;8.730;2024-02-15T14:13:08;14.00;99.90
27848;DHT22;15212;48.830;8.730;2024-02-15T14:15:38;14.10;99.90
27848;DHT22;15212;48.830;8.730;2024-02-15T14:18:08;14.10;99.90
27848;DHT22;15212;48.830;8.730;2024-02-15T14:20:40;14.20;99.90
27848;DHT22;15212;48.830;8.730;2024-02-15T14:23:13;14.30;99.90
27848;DHT22;15212;48.830;8.730;2024-02-15T14:25:42;14.30;99.90
27848;DHT22;15212;48.830;8.730;2024-02-15T14:28:15;14.30;99.90
27848;DHT22;15212;48.830;8.730;2024-02-15T14:30:43;14.30;99.90
27848;DHT22;15212;48.830;8.730;2024-02-15T14:33:29;14.30;99.90
27848;DHT22;15212;48.830;8.730;2024-02-15T14:35:59;14.30;99.90
27848;DHT22;15212;48.830;8.730;2024-02-15T14:38:27;14.30;99.90
27848;DHT22;15212;48.830;8.730;2024-02-15T14:40:55;14.30;99.90
27848;DHT22;15212;48.830;8.730;2024-02-15T14:43:26;14.40;99.90
27848;DHT22;15212;48.830;8.730;2024-02-15T14:45:55;14.40;99.90
27848;DHT22;15212;48.830;8.730;2024-02-15T14:48:23;14.30;99.90
27848;DHT22;15212;48.830;8.730;2024-02-15T14:50:51;14.30;99.90
27848;DHT22;15212;48.830;8.730;2024-02-15T14:53:22;14.30;99.90
27848;DHT22;15212;48.830;8.730;2024-02-15T14:55:50;14.30;99.90
27848;DHT22;15212;48.830;8.730;2024-02-15T14:58:20;14.20;99.90
27848;DHT22;15212;48.830;8.730;2024-02-15T15:00:51;14.20;99.90
27848;DHT22;15212;48.830;8.730;2024-02-15T15:03:19;14.10;99.90
27848;DHT22;15212;48.830;8.730;2024-02-15T15:05:48;14.00;99.90
27848;DHT22;15212;48.830;8.730;2024-02-15T15:08:34;14.00;99.90
27848;DHT22;15212;48.830;8.730;2024-02-15T15:11:21;13.90;99.90
27848;DHT22;15212;48.830;8.730;2024-02-15T15:14:07;13.80;99.90
27848;DHT22;15212;48.830;8.730;2024-02-15T15:16:38;13.80;99.90
27848;DHT22;15212;48.830;8.730;2024-02-15T15:19:06;13.80;99.90
27848;DHT22;15212;48.830;8.730;2024-02-15T15:21:34;13.70;99.90
27848;DHT22;15212;48.830;8.730;2024-02-15T15:24:03;13.70;99.90
27848;DHT22;15212;48.830;8.730;2024-02-15T15:26:32;13.70;99.90
27848;DHT22;15212;48.830;8.730;2024-02-15T15:29:00;13.70;99.90
27848;DHT22;15212;48.830;8.730;2024-02-15T15:31:28;13.60;99.90
27848;DHT22;15212;48.830;8.730;2024-02-15T15:33:57;13.60;99.90
27848;DHT22;15212;48.830;8.730;2024-02-15T15:36:26;13.50;99.90
27848;DHT22;15212;48.830;8.730;2024-02-15T15:38:54;13.50;99.90
27848;DHT22;15212;48.830;8.730;2024-02-15T15:41:24;13.40;99.90
27848;DHT22;15212;48.830;8.730;2024-02-15T15:43:54;13.40;99.90
27848;DHT22;15212;48.830;8.730;2024-02-15T15:46:22;13.30;99.90
27848;DHT22;15212;48.830;8.730;2024-02-15T15:48:50;13.30;99.90
27848;DHT22;15212;48.830;8.730;2024-02-15T15:51:19;13.20;99.90
27848;DHT22;15212;48.830;8.730;2024-02-15T15:53:47;13.10;99.90
27848;DHT22;15212;48.830;8.730;2024-02-15T15:56:17;13.10;99.90
27848;DHT22;15212;48.830;8.730;2024-02-15T15:58:46;13.00;99.90
27848;DHT22;15212;48.830;8.730;2024-02-15T16:01:15;13.00;99.90
27848;DHT22;15212;48.830;8.730;2024-02-15T16:03:50;12.90;99.90
27848;DHT22;15212;48.830;8.730;2024-02-15T16:06:18;12.80;99.90
27848;DHT22;15212;48.830;8.730;2024-02-15T16:08:47;12.80;99.90